createdAt,value
2022-08-07T00:01:44.272Z,1.10
2022-08-07T00:04:24.416Z,1.00
2022-08-07T00:06:51.551Z,1.02
2022-08-07T00:09:21.383Z,1.00
2022-08-07T00:11:56.069Z,1.00
2022-08-07T00:14:25.437Z,0.90
2022-08-07T00:19:26.133Z,0.82
2022-08-07T00:22:03.230Z,1.00
2022-08-07T00:24:31.728Z,0.80
2022-08-07T00:27:06.088Z,0.90
2022-08-07T00:29:33.872Z,1.13
2022-08-07T00:32:03.429Z,0.90
2022-08-07T00:34:32.021Z,0.95
2022-08-07T00:36:58.554Z,0.82
2022-08-07T00:39:25.632Z,0.90
2022-08-07T00:41:53.871Z,1.00
2022-08-07T00:44:28.861Z,1.27
2022-08-07T00:46:55.027Z,1.33
2022-08-07T00:49:24.859Z,1.20
2022-08-07T00:52:07.543Z,1.27
2022-08-07T00:54:36.117Z,1.52
2022-08-07T00:57:06.881Z,1.40
2022-08-07T00:59:36.187Z,1.30
2022-08-07T01:02:02.392Z,1.20
2022-08-07T01:04:30.269Z,1.50
2022-08-07T01:06:56.631Z,1.27
2022-08-07T01:10:06.322Z,1.30
2022-08-07T01:12:29.712Z,1.60
2022-08-07T01:14:57.108Z,1.30
2022-08-07T01:17:28.067Z,1.77
2022-08-07T01:19:55.136Z,1.55
2022-08-07T01:22:22.838Z,1.40
2022-08-07T01:24:55.411Z,1.55
2022-08-07T01:27:22.087Z,1.30
2022-08-07T01:29:48.249Z,1.70
2022-08-07T01:32:16.844Z,1.42
2022-08-07T01:34:47.311Z,1.27
2022-08-07T01:37:15.353Z,1.40
2022-08-07T01:39:46.446Z,1.33
2022-08-07T01:42:38.538Z,1.13
2022-08-07T01:44:59.459Z,1.30
2022-08-07T01:48:29.379Z,1.17
2022-08-07T01:50:12.692Z,1.10
2022-08-07T01:52:38.862Z,1.02
2022-08-07T01:55:07.030Z,1.60
2022-08-07T01:57:34.025Z,1.20
2022-08-07T02:00:19.355Z,0.80
2022-08-07T02:03:18.435Z,0.70
2022-08-07T02:05:43.321Z,0.90
2022-08-07T02:08:14.853Z,0.80
2022-08-07T02:10:42.312Z,0.80
2022-08-07T02:13:08.660Z,0.85
2022-08-07T02:15:35.617Z,0.80
2022-08-07T02:18:01.804Z,0.90
2022-08-07T02:20:27.998Z,0.75
2022-08-07T02:22:54.934Z,0.90
2022-08-07T02:25:21.340Z,0.90
2022-08-07T02:28:07.521Z,0.80
2022-08-07T02:30:37.580Z,1.00
2022-08-07T02:33:09.475Z,0.98
2022-08-07T02:36:29.323Z,0.80
2022-08-07T02:38:22.880Z,0.80
2022-08-07T02:40:56.074Z,1.10
2022-08-07T02:43:22.337Z,0.90
2022-08-07T02:46:00.434Z,0.77
2022-08-07T02:48:28.422Z,0.90
2022-08-07T02:50:54.581Z,1.10
2022-08-07T02:53:21.242Z,0.90
2022-08-07T02:56:03.710Z,1.20
2022-08-07T02:58:33.325Z,0.95
2022-08-07T03:00:59.910Z,0.93
2022-08-07T03:03:26.146Z,1.30
2022-08-07T03:06:08.277Z,1.50
2022-08-07T03:08:42.842Z,1.50
2022-08-07T03:11:09.413Z,1.33
2022-08-07T03:13:38.677Z,1.38
2022-08-07T03:16:05.144Z,1.60
2022-08-07T03:18:34.602Z,1.67
2022-08-07T03:21:02.307Z,1.55
2022-08-07T03:23:33.712Z,1.35
2022-08-07T03:26:21.078Z,1.75
2022-08-07T03:28:49.831Z,1.60
2022-08-07T03:31:17.827Z,1.50
2022-08-07T03:33:44.366Z,1.55
2022-08-07T03:36:10.526Z,1.77
2022-08-07T03:38:36.728Z,1.80
2022-08-07T03:41:02.920Z,2.00
2022-08-07T03:43:32.393Z,1.95
2022-08-07T03:45:59.155Z,2.55
2022-08-07T03:48:25.941Z,2.65
2022-08-07T03:50:55.873Z,2.55
2022-08-07T03:54:00.564Z,2.70
2022-08-07T03:56:10.321Z,2.38
2022-08-07T03:59:09.636Z,1.80
2022-08-07T04:01:26.155Z,1.85
2022-08-07T04:03:55.019Z,1.80
2022-08-07T04:06:37.008Z,1.70
2022-08-07T04:09:04.690Z,1.48
2022-08-07T04:12:24.612Z,1.60
2022-08-07T04:14:37.562Z,1.80
2022-08-07T04:17:03.940Z,1.50
2022-08-07T04:19:34.117Z,2.03
2022-08-07T04:22:17.754Z,2.13
2022-08-07T04:24:44.121Z,1.70
2022-08-07T04:27:15.368Z,2.20
2022-08-07T04:32:34.682Z,1.50
2022-08-07T04:35:01.260Z,1.80
2022-08-07T04:37:30.227Z,2.20
2022-08-07T04:40:16.372Z,1.30
2022-08-07T04:42:45.851Z,1.65
2022-08-07T04:45:44.433Z,1.40
2022-08-07T04:48:10.844Z,1.25
2022-08-07T04:50:37.239Z,1.40
2022-08-07T04:53:05.769Z,1.30
2022-08-07T04:58:14.419Z,1.48
2022-08-07T04:58:38.919Z,1.92
2022-08-07T05:01:13.533Z,1.20
2022-08-07T05:04:06.469Z,1.27
2022-08-07T05:06:43.365Z,1.50
2022-08-07T05:09:10.149Z,1.52
2022-08-07T05:11:57.618Z,1.20
2022-08-07T05:14:55.986Z,1.65
2022-08-07T05:17:11.844Z,1.38
2022-08-07T05:19:44.767Z,1.33
2022-08-07T05:22:11.609Z,1.25
2022-08-07T05:24:39.570Z,1.40
2022-08-07T05:27:07.898Z,1.38
2022-08-07T05:29:51.218Z,1.20
2022-08-07T05:32:18.508Z,1.30
2022-08-07T05:34:45.998Z,1.20
2022-08-07T05:37:14.865Z,1.30
2022-08-07T05:40:17.545Z,1.45
2022-08-07T05:42:37.755Z,1.25
2022-08-07T05:45:26.313Z,1.10
2022-08-07T05:48:01.887Z,1.10
2022-08-07T05:50:29.159Z,1.20
2022-08-07T05:52:55.603Z,1.00
2022-08-07T05:55:21.797Z,1.30
2022-08-07T05:57:49.109Z,1.25
2022-08-07T06:00:17.822Z,1.02
2022-08-07T06:02:44.168Z,1.13
2022-08-07T06:05:10.896Z,0.95
2022-08-07T06:08:13.790Z,1.30
2022-08-07T06:10:27.757Z,1.00
2022-08-07T06:12:53.966Z,1.38
2022-08-07T06:15:20.873Z,1.17
2022-08-07T06:17:53.561Z,1.17
2022-08-07T06:20:25.733Z,1.13
2022-08-07T06:23:25.016Z,1.60
2022-08-07T06:25:57.140Z,1.10
2022-08-07T06:28:27.799Z,1.20
2022-08-07T06:33:20.773Z,1.08
2022-08-07T06:36:13.451Z,1.65
2022-08-07T06:38:35.288Z,1.20
2022-08-07T06:41:01.611Z,1.38
2022-08-07T06:43:27.989Z,1.75
2022-08-07T06:46:05.853Z,1.60
2022-08-07T06:48:37.805Z,1.27
2022-08-07T06:51:09.488Z,1.35
2022-08-07T06:55:27.330Z,1.33
2022-08-07T06:56:21.938Z,1.30
2022-08-07T07:00:13.124Z,1.50
2022-08-07T07:01:43.836Z,1.63
2022-08-07T07:04:32.576Z,1.55
2022-08-07T07:07:00.904Z,1.58
2022-08-07T07:09:31.336Z,1.30
2022-08-07T07:12:08.283Z,1.70
2022-08-07T07:14:40.349Z,1.40
2022-08-07T07:17:06.771Z,1.60
2022-08-07T07:19:57.428Z,1.67
2022-08-07T07:22:36.533Z,1.65
2022-08-07T07:25:26.205Z,1.40
2022-08-07T07:28:02.473Z,1.70
2022-08-07T07:30:38.745Z,1.65
2022-08-07T07:33:06.374Z,1.80
2022-08-07T07:35:34.046Z,1.70
2022-08-07T07:38:21.347Z,1.70
2022-08-07T07:40:47.688Z,2.00
2022-08-07T07:43:18.612Z,1.70
2022-08-07T07:48:35.818Z,2.00
2022-08-07T07:51:02.596Z,1.80
2022-08-07T07:53:35.853Z,2.17
2022-08-07T07:56:02.019Z,1.83
2022-08-07T07:58:30.252Z,2.00
2022-08-07T08:00:56.513Z,2.00
2022-08-07T08:04:06.496Z,2.15
2022-08-07T08:06:11.540Z,1.70
2022-08-07T08:08:41.840Z,1.80
2022-08-07T08:11:09.232Z,2.05
2022-08-07T08:13:53.261Z,2.30
2022-08-07T08:16:25.057Z,2.08
2022-08-07T08:18:51.607Z,1.70
2022-08-07T08:21:17.805Z,1.85
2022-08-07T08:23:43.963Z,2.10
2022-08-07T08:26:12.342Z,2.00
2022-08-07T08:28:39.200Z,2.00
2022-08-07T08:31:14.736Z,1.90
2022-08-07T08:33:46.971Z,2.03
2022-08-07T08:36:15.928Z,2.00
2022-08-07T08:38:42.120Z,2.08
2022-08-07T08:41:10.769Z,1.75
2022-08-07T08:43:42.865Z,1.90
2022-08-07T08:46:22.194Z,1.92
2022-08-07T08:48:51.602Z,1.88
2022-08-07T08:51:26.337Z,1.98
2022-08-07T08:54:03.918Z,2.03
2022-08-07T08:56:30.078Z,2.13
2022-08-07T08:58:56.323Z,1.90
2022-08-07T09:01:22.546Z,1.77
2022-08-07T09:03:55.675Z,2.03
2022-08-07T09:06:22.954Z,2.20
2022-08-07T09:08:52.997Z,1.75
2022-08-07T09:11:24.967Z,1.90
2022-08-07T09:14:05.348Z,2.05
2022-08-07T09:16:31.530Z,2.05
2022-08-07T09:18:58.399Z,1.63
2022-08-07T09:21:34.070Z,2.80
2022-08-07T09:24:30.860Z,1.60
2022-08-07T09:26:57.446Z,2.15
2022-08-07T09:30:05.421Z,1.50
2022-08-07T09:32:17.322Z,1.90
2022-08-07T09:34:53.633Z,3.28
2022-08-07T09:37:47.949Z,1.70
2022-08-07T09:40:11.740Z,1.67
2022-08-07T09:42:44.044Z,1.50
2022-08-07T09:47:24.967Z,1.20
2022-08-07T09:48:03.699Z,1.30
2022-08-07T09:50:32.470Z,1.42
2022-08-07T09:52:58.655Z,1.30
2022-08-07T09:55:29.786Z,1.52
2022-08-07T09:58:13.187Z,1.30
2022-08-07T10:00:39.351Z,1.25
2022-08-07T10:03:08.357Z,1.40
2022-08-07T10:05:59.637Z,1.50
2022-08-07T10:08:28.229Z,1.25
2022-08-07T10:11:16.499Z,1.30
2022-08-07T10:14:00.181Z,1.20
2022-08-07T10:16:27.875Z,1.55
2022-08-07T10:18:54.096Z,1.40
2022-08-07T10:22:12.231Z,1.60
2022-08-07T10:24:08.413Z,1.17
2022-08-07T10:26:34.998Z,1.30
2022-08-07T10:29:01.137Z,1.20
2022-08-07T10:31:28.186Z,1.20
2022-08-07T10:34:14.213Z,1.10
2022-08-07T10:36:45.576Z,1.30
2022-08-07T10:39:14.031Z,0.90
2022-08-07T10:41:46.968Z,1.20
2022-08-07T10:44:19.295Z,1.05
2022-08-07T10:46:54.736Z,1.02
2022-08-07T10:49:45.235Z,1.10
2022-08-07T10:52:13.321Z,1.10
2022-08-07T10:54:40.035Z,1.00
2022-08-07T10:57:06.218Z,1.00
2022-08-07T10:59:37.093Z,1.10
2022-08-07T11:02:12.034Z,0.93
2022-08-07T11:04:38.844Z,1.10
2022-08-07T11:07:05.373Z,1.27
2022-08-07T11:10:10.033Z,1.00
2022-08-07T11:12:37.205Z,1.20
2022-08-07T11:15:03.383Z,0.90
2022-08-07T11:17:43.217Z,0.98
2022-08-07T11:20:11.809Z,1.10
2022-08-07T11:22:45.908Z,0.90
2022-08-07T11:25:12.507Z,1.30
2022-08-07T11:28:02.476Z,1.08
2022-08-07T11:30:39.124Z,1.45
2022-08-07T11:33:14.163Z,1.10
2022-08-07T11:36:00.382Z,1.00
2022-08-07T11:38:28.371Z,1.10
2022-08-07T11:40:54.672Z,1.33
2022-08-07T11:43:29.789Z,1.20
2022-08-07T11:46:08.490Z,1.05
2022-08-07T11:48:35.498Z,0.98
2022-08-07T11:51:03.696Z,1.17
2022-08-07T11:53:29.956Z,1.00
2022-08-07T11:56:09.527Z,1.02
2022-08-07T11:58:49.849Z,0.90
2022-08-07T12:01:20.412Z,0.80
2022-08-07T12:03:48.402Z,0.98
2022-08-07T12:06:36.256Z,1.02
2022-08-07T12:09:00.983Z,1.33
2022-08-07T12:11:32.251Z,1.00
2022-08-07T12:13:58.830Z,1.15
2022-08-07T12:16:28.840Z,1.20
2022-08-07T12:18:56.951Z,0.93
2022-08-07T12:22:35.814Z,1.10
2022-08-07T12:24:36.874Z,1.10
2022-08-07T12:26:55.466Z,1.20
2022-08-07T12:29:38.071Z,0.95
2022-08-07T12:32:06.320Z,1.00
2022-08-07T12:34:33.967Z,0.73
2022-08-07T12:37:00.268Z,0.90
2022-08-07T12:39:42.917Z,1.00
2022-08-07T12:42:13.166Z,1.00
2022-08-07T12:44:39.575Z,1.27
2022-08-07T12:47:09.219Z,1.30
2022-08-07T12:49:44.790Z,0.90
2022-08-07T12:52:27.859Z,1.00
2022-08-07T12:54:54.622Z,1.00
2022-08-07T12:57:22.235Z,1.08
2022-08-07T12:59:55.220Z,1.13
2022-08-07T13:02:21.869Z,0.95
2022-08-07T13:05:01.241Z,0.82
2022-08-07T13:08:14.184Z,1.10
2022-08-07T13:10:37.161Z,0.98
2022-08-07T13:13:00.656Z,1.10
2022-08-07T13:15:31.585Z,0.90
2022-08-07T13:17:59.527Z,1.10
2022-08-07T13:20:27.759Z,1.13
2022-08-07T13:22:55.317Z,0.90
2022-08-07T13:25:29.008Z,1.00
2022-08-07T13:28:13.051Z,0.90
2022-08-07T13:30:44.146Z,1.10
2022-08-07T13:34:34.616Z,1.10
2022-08-07T13:36:07.654Z,1.05
2022-08-07T13:38:33.829Z,1.00
2022-08-07T13:41:00.016Z,0.90
2022-08-07T13:43:26.231Z,0.90
2022-08-07T13:46:11.533Z,1.33
2022-08-07T13:48:39.955Z,1.10
2022-08-07T13:51:26.926Z,0.93
2022-08-07T13:54:00.569Z,1.08
2022-08-07T13:56:35.912Z,1.05
2022-08-07T13:59:12.234Z,1.10
2022-08-07T14:01:51.363Z,0.85
2022-08-07T14:04:24.802Z,1.00
2022-08-07T14:07:01.500Z,1.00
2022-08-07T14:10:02.858Z,1.00
2022-08-07T14:12:13.826Z,1.10
2022-08-07T14:14:39.995Z,0.93
2022-08-07T14:17:32.307Z,0.88
2022-08-07T14:20:40.040Z,0.95
2022-08-07T14:22:39.213Z,1.10
2022-08-07T14:25:07.073Z,0.98
2022-08-07T14:28:10.895Z,0.80
2022-08-07T14:30:32.808Z,0.90
2022-08-07T14:32:59.481Z,1.52
2022-08-07T14:35:43.207Z,0.90
2022-08-07T14:38:26.762Z,0.90
2022-08-07T14:40:57.362Z,1.17
2022-08-07T14:43:55.486Z,0.98
2022-08-07T14:46:10.400Z,0.93
2022-08-07T14:48:36.542Z,1.00
2022-08-07T14:51:02.696Z,1.00
2022-08-07T14:54:03.802Z,1.00
2022-08-07T14:59:03.109Z,0.90
2022-08-07T15:01:42.543Z,1.00
2022-08-07T15:04:17.408Z,1.05
2022-08-07T15:06:47.932Z,1.10
2022-08-07T15:12:01.653Z,1.05
2022-08-07T15:14:30.643Z,1.10
2022-08-07T15:22:33.604Z,1.20
2022-08-07T15:25:17.977Z,0.77
2022-08-07T15:30:31.945Z,1.13
2022-08-07T15:33:03.899Z,1.60
2022-08-07T15:36:00.721Z,3.67
2022-08-07T15:43:55.796Z,1.02
2022-08-07T15:54:23.880Z,1.10
2022-08-07T15:56:52.549Z,0.93
2022-08-07T15:59:18.703Z,1.17
2022-08-07T16:01:45.062Z,0.98
2022-08-07T16:04:28.250Z,0.82
2022-08-07T16:06:59.184Z,1.10
2022-08-07T16:09:41.132Z,1.15
2022-08-07T16:12:12.168Z,0.85
2022-08-07T16:14:38.604Z,1.13
2022-08-07T16:17:15.037Z,1.13
2022-08-07T16:19:59.222Z,0.90
2022-08-07T16:22:33.399Z,0.90
2022-08-07T16:25:02.354Z,0.90
2022-08-07T16:27:39.795Z,0.90
2022-08-07T16:30:29.472Z,1.48
2022-08-07T16:32:54.374Z,1.05
2022-08-07T16:35:50.724Z,0.90
2022-08-07T16:38:09.780Z,1.08
2022-08-07T16:40:37.792Z,1.10
2022-08-07T16:43:23.642Z,0.82
2022-08-07T16:47:04.952Z,1.90
2022-08-07T16:50:28.789Z,1.20
2022-08-07T16:52:01.989Z,1.13
2022-08-07T16:54:32.963Z,1.25
2022-08-07T16:56:59.678Z,1.67
2022-08-07T16:59:25.826Z,1.20
2022-08-07T17:02:11.991Z,1.17
2022-08-07T17:04:50.957Z,1.15
2022-08-07T17:07:28.420Z,1.10
2022-08-07T17:10:32.804Z,0.90
2022-08-07T17:12:56.233Z,1.10
2022-08-07T17:15:43.933Z,1.20
2022-08-07T17:18:14.185Z,1.10
2022-08-07T17:20:40.514Z,1.30
2022-08-07T17:23:08.570Z,0.95
2022-08-07T17:25:51.480Z,1.00
2022-08-07T17:28:19.764Z,0.93
2022-08-07T17:30:57.592Z,1.00
2022-08-07T17:34:09.887Z,1.35
2022-08-07T17:36:13.553Z,1.00
2022-08-07T17:38:46.840Z,1.10
2022-08-07T17:42:02.086Z,0.93
2022-08-07T17:44:06.510Z,1.00
2022-08-07T17:46:38.122Z,1.38
2022-08-07T17:49:08.883Z,4.55
2022-08-07T17:51:49.302Z,3.20
2022-08-07T17:54:39.718Z,2.53
2022-08-07T17:57:18.737Z,1.48
2022-08-07T17:59:45.533Z,1.38
2022-08-07T18:02:16.642Z,1.05
2022-08-07T18:04:49.468Z,1.20
2022-08-07T18:07:22.593Z,1.35
2022-08-07T18:10:07.221Z,1.08
2022-08-07T18:12:36.475Z,1.27
2022-08-07T18:15:17.966Z,1.30
2022-08-07T18:18:45.835Z,1.63
2022-08-07T18:21:07.326Z,1.30
2022-08-07T18:23:43.647Z,1.20
2022-08-07T18:26:14.934Z,1.15
2022-08-07T18:28:57.877Z,1.10
2022-08-07T18:31:27.812Z,1.48
2022-08-07T18:34:00.183Z,1.60
2022-08-07T18:40:08.818Z,1.60
2022-08-07T18:45:39.729Z,1.70
2022-08-07T18:47:44.480Z,1.23
2022-08-07T18:50:39.052Z,3.92
2022-08-07T18:53:02.916Z,2.20
2022-08-07T18:55:40.746Z,2.08
2022-08-07T18:58:26.105Z,1.50
2022-08-07T19:00:59.397Z,1.17
2022-08-07T19:03:35.448Z,1.50
2022-08-07T19:06:05.032Z,1.83
2022-08-07T19:08:31.318Z,2.03
2022-08-07T19:10:58.102Z,1.92
2022-08-07T19:13:24.288Z,1.83
2022-08-07T19:16:04.728Z,1.50
2022-08-07T19:18:36.605Z,1.45
2022-08-07T19:21:43.834Z,1.50
2022-08-07T19:24:05.055Z,1.40
2022-08-07T19:26:55.607Z,2.00
2022-08-07T19:30:57.947Z,1.30
2022-08-07T19:32:28.780Z,1.30
2022-08-07T19:34:51.376Z,1.63
2022-08-07T19:40:08.341Z,1.35
2022-08-07T19:42:40.066Z,1.40
2022-08-07T19:45:09.595Z,1.50
2022-08-07T19:47:36.564Z,1.40
2022-08-07T19:50:44.294Z,1.40
2022-08-07T19:52:58.975Z,1.45
2022-08-07T19:55:25.494Z,1.40
2022-08-07T19:58:14.205Z,1.58
2022-08-07T20:00:42.964Z,1.85
2022-08-07T20:03:34.677Z,1.40
2022-08-07T20:06:02.539Z,1.40
2022-08-07T20:08:29.140Z,1.70
2022-08-07T20:10:56.393Z,1.70
2022-08-07T20:13:32.216Z,1.65
2022-08-07T20:15:58.519Z,1.77
2022-08-07T20:18:32.189Z,1.40
2022-08-07T20:20:59.469Z,1.70
2022-08-07T20:23:41.695Z,1.55
2022-08-07T20:26:10.492Z,1.88
2022-08-07T20:28:37.321Z,1.40
2022-08-07T20:31:05.200Z,1.60
2022-08-07T20:33:37.733Z,1.40
2022-08-07T20:38:32.057Z,1.42
2022-08-07T20:40:59.375Z,1.25
2022-08-07T20:43:30.189Z,1.20
2022-08-07T20:46:27.590Z,1.35
2022-08-07T20:49:54.305Z,1.30
2022-08-07T20:51:30.983Z,1.20
2022-08-07T20:54:08.675Z,1.10
2022-08-07T20:56:38.275Z,1.20
2022-08-07T20:59:06.523Z,1.50
2022-08-07T21:01:55.057Z,1.40
2022-08-07T21:04:23.622Z,1.02
2022-08-07T21:06:53.555Z,1.15
2022-08-07T21:09:24.285Z,1.17
2022-08-07T21:11:51.777Z,1.40
2022-08-07T21:14:33.134Z,1.27
2022-08-07T21:18:00.602Z,1.38
2022-08-07T21:19:51.574Z,1.40
2022-08-07T21:22:28.685Z,1.40
2022-08-07T21:24:55.023Z,1.40
2022-08-07T21:27:22.096Z,1.52
2022-08-07T21:29:53.181Z,1.55
2022-08-07T21:32:46.920Z,2.17
2022-08-07T21:35:09.375Z,1.60
2022-08-07T21:37:58.400Z,1.50
2022-08-07T21:40:23.997Z,1.65
2022-08-07T21:42:50.456Z,1.70
2022-08-07T21:46:04.872Z,1.92
2022-08-07T21:48:05.392Z,1.83
2022-08-07T21:50:31.756Z,1.30
2022-08-07T21:52:58.251Z,1.90
2022-08-07T21:55:27.800Z,1.42
2022-08-07T21:57:56.302Z,1.60
2022-08-07T22:00:25.222Z,1.70
2022-08-07T22:02:51.933Z,1.40
2022-08-07T22:05:44.556Z,1.65
2022-08-07T22:08:04.870Z,1.63
2022-08-07T22:10:33.660Z,1.65
2022-08-07T22:13:01.543Z,1.70
2022-08-07T22:16:44.357Z,1.40
2022-08-07T22:18:13.890Z,1.30
2022-08-07T22:20:40.562Z,1.25
2022-08-07T22:23:06.718Z,1.60
2022-08-07T22:25:36.260Z,1.40
2022-08-07T22:28:30.192Z,1.52
2022-08-07T22:30:53.015Z,1.23
2022-08-07T22:33:37.051Z,1.73
2022-08-07T22:36:05.670Z,1.40
2022-08-07T22:38:31.997Z,1.30
2022-08-07T22:40:59.894Z,1.50
2022-08-07T22:43:31.566Z,1.38
2022-08-07T22:48:55.503Z,1.50
2022-08-07T22:54:08.171Z,1.45
2022-08-07T22:56:35.394Z,1.45
2022-08-07T22:59:02.096Z,1.67
2022-08-07T23:01:49.563Z,1.50
2022-08-07T23:04:16.936Z,1.50
2022-08-07T23:06:43.146Z,1.65
2022-08-07T23:10:05.914Z,1.52
2022-08-07T23:12:03.743Z,1.17
2022-08-07T23:14:30.554Z,1.50
2022-08-07T23:16:58.359Z,1.38
2022-08-07T23:19:47.922Z,1.13
2022-08-07T23:22:10.768Z,1.33
2022-08-07T23:24:38.778Z,1.40
2022-08-07T23:27:11.721Z,1.30
2022-08-07T23:29:43.877Z,1.30
2022-08-07T23:34:23.957Z,1.30
2022-08-07T23:35:10.247Z,1.45
2022-08-07T23:37:36.443Z,1.40
2022-08-07T23:40:22.604Z,1.30
2022-08-07T23:42:49.163Z,1.35
2022-08-07T23:45:33.143Z,1.85
2022-08-07T23:48:05.805Z,1.48
2022-08-07T23:50:31.952Z,1.42
2022-08-07T23:53:06.404Z,1.70
2022-08-07T23:55:53.045Z,1.48
2022-08-07T23:58:21.855Z,1.52
